Latest Weather Observations for King Island Airport

IDT60801

Issued at 2:21 pm EDT Wednesday 20 January 2021 (issued every 10 minutes, with the page automatically refreshed every 10 minutes)

About weather observations | Map of weather stations | Latest weather observations for TAS | Other Formats
Station Details ID: 098017 Name: KING ISLAND AIRPORT Lat: -39.88 Lon: 143.89 Height: 35.42 m
Data from the previous 72 hours. | See also: Recent months at King Island Airport
Date/Time
EDT
Temp
°C
App
Temp
°C
Dew
Point
°C
Rel
Hum
%
Delta-T
°C
Wind Press
QNH
hPa
Press
MSL
hPa
Rain since
9am
mm
Dir  Spd
km/h
Gust
km/h
Spd
kts
Gust
kts
20/02:00pm 19.7 15.6 11.5 59 4.5 WNW 24 28 13 15 1023.0 1023.0 0.0
20/01:30pm 20.9 18.3 9.2 47 6.2 ENE 13 20 7 11 1023.1 1023.1 0.0
20/01:00pm 20.1 17.6 9.7 51 5.5 NE 13 20 7 11 1023.3 1023.3 0.0
20/12:30pm 19.8 16.8 10.5 55 5.0 E 17 24 9 13 1023.7 1023.7 0.0
20/12:00pm 18.6 15.3 9.4 55 4.8 E 17 24 9 13 1024.0 1024.0 0.0
20/11:30am 18.7 15.1 8.4 51 5.3 E 17 24 9 13 1024.1 1024.1 0.0
20/11:00am 18.2 15.0 10.1 59 4.3 E 17 26 9 14 1024.3 1024.3 0.0
20/10:30am 17.7 14.1 9.8 60 4.2 E 19 24 10 13 1024.4 1024.4 0.0
20/10:00am 17.1 13.9 9.8 62 3.8 ESE 17 22 9 12 1024.7 1024.7 0.0
20/09:30am 16.3 12.9 9.0 62 3.8 ESE 17 22 9 12 1025.1 1025.0 0.0
20/09:00am 16.0 12.7 11.0 72 2.7 ESE 19 24 10 13 1025.0 1024.9 0.0
20/08:30am 14.4 11.5 9.8 74 2.4 SE 15 22 8 12 1025.1 1025.0 0.0
20/08:00am 10.8 10.1 10.2 96 0.3 NNW 4 9 2 5 1025.0 1024.9 0.0
20/07:30am 8.1 7.3 8.0 99 0.0 ESE 2 6 1 3 1024.5 1024.5 0.0
20/07:00am 7.0 4.6 6.9 99 0.0 SE 9 9 5 5 1024.3 1024.3 0.0
20/06:30am 6.9 4.5 6.8 99 0.0 SE 9 11 5 6 1024.4 1024.4 0.0
20/06:00am 5.7 3.6 5.6 99 0.0 E 6 7 3 4 1024.3 1024.3 0.0
20/05:30am 7.1 4.5 6.0 93 0.5 SSE 9 13 5 7 1024.1 1024.1 0.0
20/05:00am 8.8 6.2 7.9 94 0.4 SSE 11 15 6 8 1023.8 1023.8 0.0
20/04:30am 8.1 5.6 8.0 99 0.0 SSE 11 13 6 7 1023.8 1023.8 0.0
20/04:00am 6.7 3.8 4.7 87 0.9 ESE 9 15 5 8 1024.0 1024.0 0.0
20/03:30am 6.6 4.5 5.9 95 0.3 ESE 6 9 3 5 1024.2 1024.2 0.0
20/03:00am 7.6 5.4 5.4 86 1.0 ESE 6 9 3 5 1024.5 1024.5 0.0
20/02:30am 9.0 6.9 6.8 86 1.0 SSE 7 11 4 6 1024.5 1024.5 0.0
20/02:00am 8.6 5.3 6.4 86 1.0 SSW 13 17 7 9 1024.5 1024.5 0.0
20/01:30am 9.8 6.6 6.9 82 1.4 S 13 19 7 10 1024.6 1024.6 0.0
20/01:00am 9.9 6.7 7.0 82 1.4 SSE 13 17 7 9 1025.0 1024.9 0.0
20/12:30am 10.1 6.9 7.0 81 1.5 SSE 13 19 7 10 1025.2 1025.1 0.0
20/12:00am 9.7 7.2 6.4 80 1.5 SSE 9 15 5 8 1025.4 1025.3 0.0
 
Date/Time
EDT
Temp
°C
App
Temp
°C
Dew
Point
°C
Rel
Hum
%
Delta-T
°C
Wind Press
QNH
hPa
Press
MSL
hPa
Rain since
9am
mm
Dir  Spd
km/h
Gust
km/h
Spd
kts
Gust
kts
19/11:30pm 10.2 7.7 6.5 78 1.7 SSE 9 13 5 7 1025.5 1025.4 0.0
19/11:00pm 10.5 7.7 6.8 78 1.7 SSE 11 15 6 8 1025.6 1025.5 0.0
19/10:30pm 10.5 8.0 6.5 76 1.9 S 9 15 5 8 1026.0 1025.9 0.0
19/10:00pm 11.1 7.9 6.8 75 2.0 S 13 20 7 11 1026.0 1025.9 0.0
19/09:30pm 11.2 7.9 6.3 72 2.3 S 13 19 7 10 1025.9 1025.8 0.0
19/09:00pm 11.6 7.4 5.9 68 2.6 S 17 22 9 12 1025.6 1025.5 0.0
19/08:30pm 12.4 7.8 5.8 64 3.1 S 19 30 10 16 1025.7 1025.6 0.0
19/08:00pm 13.1 7.7 6.2 63 3.3 S 24 37 13 20 1025.4 1025.3 0.0
19/07:30pm 13.9 8.9 6.5 61 3.6 S 22 37 12 20 1025.0 1024.9 0.0
19/07:00pm 14.4 8.1 5.5 55 4.2 S 28 41 15 22 1024.9 1024.8 0.0
19/06:30pm 14.6 7.6 6.2 57 4.0 SSW 32 44 17 24 1024.9 1024.8 0.0
19/06:00pm 14.5 7.5 6.1 57 4.0 SSW 32 43 17 23 1024.7 1024.7 0.0
19/05:30pm 15.4 7.9 6.2 54 4.5 SSW 35 44 19 24 1024.7 1024.7 0.0
19/05:00pm 15.8 9.5 7.6 58 4.1 SSW 30 43 16 23 1025.0 1024.9 0.0
19/04:30pm 15.4 8.5 6.4 55 4.4 SSW 32 46 17 25 1025.2 1025.1 0.0
19/04:00pm 15.1 8.8 5.9 54 4.4 SSW 28 43 15 23 1025.2 1025.1 0.0
19/03:42pm 15.5 9.3 6.2 54 4.5 SSW 28 46 15 25 1025.4 1025.3 0.0
19/03:30pm 16.0 9.2 7.5 57 4.2 SSW 33 44 18 24 1025.4 1025.3 0.0
19/03:00pm 15.3 8.1 5.0 50 4.8 SSW 32 44 17 24 1025.3 1025.2 0.0
19/02:47pm 16.1 9.8 5.7 50 5.0 S 28 46 15 25 1025.4 1025.3 0.0
19/02:30pm 16.0 9.2 5.0 48 5.2 SSW 30 43 16 23 1025.3 1025.2 0.0
19/02:00pm 15.3 8.1 5.8 53 4.5 SSW 33 44 18 24 1025.4 1025.3 0.0
19/01:30pm 15.5 8.4 6.2 54 4.5 SSW 33 44 18 24 1025.7 1025.6 0.0
19/01:00pm 15.8 8.7 5.4 50 4.9 SSW 32 43 17 23 1025.8 1025.7 0.0
19/12:30pm 15.9 8.5 4.0 45 5.5 SSW 32 46 17 25 1025.8 1025.7 0.0
19/12:13pm 15.6 9.1 4.6 48 5.2 SSW 28 50 15 27 1025.8 1025.7 0.0
19/12:00pm 15.0 7.7 4.4 49 4.9 SSW 32 43 17 23 1025.8 1025.7 0.0
19/11:30am 15.6 10.0 5.2 50 4.9 SSW 24 35 13 19 1025.7 1025.6 0.0
19/11:00am 15.8 9.1 5.7 51 4.8 SSW 30 39 16 21 1025.6 1025.5 0.0
19/10:30am 15.0 8.1 4.4 49 4.9 SSW 30 39 16 21 1025.4 1025.3 0.0
19/10:00am 14.4 8.7 4.7 52 4.5 S 24 35 13 19 1025.2 1025.1 0.0
19/09:30am 14.0 8.7 6.6 61 3.6 SSW 24 35 13 19 1025.0 1024.9 0.0
19/09:00am 14.3 8.6 4.9 53 4.4 SSW 24 37 13 20 1024.6 1024.6 0.2
19/08:30am 13.9 7.5 5.3 56 4.0 S 28 37 15 20 1024.3 1024.3 0.2
19/08:00am 13.1 8.0 6.0 62 3.3 S 22 35 12 19 1023.8 1023.8 0.2
19/07:30am 12.1 9.4 5.7 65 3.0 S 9 15 5 8 1023.3 1023.3 0.2
19/07:00am 12.1 8.5 5.0 62 3.2 SSE 13 19 7 10 1022.9 1022.9 0.2
19/06:30am 11.7 5.8 4.0 59 3.5 SSW 24 37 13 20 1022.6 1022.6 0.2
19/06:00am 11.5 6.4 4.3 61 3.2 SSW 20 33 11 18 1022.1 1022.1 0.2
19/05:30am 11.8 5.6 4.3 60 3.4 SSW 26 35 14 19 1021.8 1021.8 0.2
19/05:00am 12.3 6.6 4.8 60 3.4 S 24 35 13 19 1021.4 1021.4 0.2
19/04:30am 12.6 6.3 5.8 63 3.2 SSW 28 35 15 19 1020.9 1020.9 0.2
19/04:00am 11.7 6.8 5.1 64 3.0 S 20 32 11 17 1020.7 1020.7 0.2
19/03:30am 12.4 7.0 6.2 66 2.9 S 24 37 13 20 1020.5 1020.5 0.2
19/03:00am 12.7 8.0 6.1 64 3.1 SSW 20 30 11 16 1020.3 1020.3 0.2
19/02:30am 12.2 6.7 5.8 65 3.0 SSW 24 37 13 20 1020.3 1020.3 0.2
19/02:00am 12.4 6.1 5.8 64 3.1 SSW 28 43 15 23 1020.1 1020.1 0.2
19/01:30am 12.3 6.0 5.7 64 3.1 SSW 28 39 15 21 1019.9 1019.9 0.2
19/01:00am 12.4 6.3 6.5 67 2.8 SSW 28 35 15 19 1019.7 1019.7 0.2
19/12:30am 12.4 5.4 6.7 68 2.7 SSW 33 46 18 25 1019.5 1019.5 0.2
19/12:00am 12.9 7.4 7.4 69 2.7 SSW 26 33 14 18 1019.1 1019.1 0.2
 
Date/Time
EDT
Temp
°C
App
Temp
°C
Dew
Point
°C
Rel
Hum
%
Delta-T
°C
Wind Press
QNH
hPa
Press
MSL
hPa
Rain since
9am
mm
Dir  Spd
km/h
Gust
km/h
Spd
kts
Gust
kts
18/11:30pm 12.7 6.1 6.1 64 3.1 SSW 30 37 16 20 1019.1 1019.1 0.2
18/11:00pm 13.5 6.7 7.9 69 2.8 SSW 33 46 18 25 1018.9 1018.9 0.2
18/10:30pm 13.2 6.4 7.9 70 2.6 SSW 33 44 18 24 1018.7 1018.7 0.2
18/10:00pm 14.2 8.0 9.4 73 2.5 SSW 32 43 17 23 1018.3 1018.3 0.2
18/09:47pm 14.4 8.9 9.2 71 2.7 SW 28 48 15 26 1018.1 1018.1 0.2
18/09:30pm 14.2 7.8 8.6 69 2.8 SW 32 43 17 23 1017.9 1017.9 0.2
18/09:00pm 14.7 8.0 10.9 78 2.0 SW 37 52 20 28 1017.5 1017.5 0.2
18/08:30pm 14.9 7.7 9.3 69 2.9 SW 37 48 20 26 1017.2 1017.2 0.2
18/08:00pm 14.9 8.5 12.0 83 1.6 SW 37 50 20 27 1016.8 1016.8 0.2
18/07:50pm 15.2 9.6 12.2 82 1.6 SW 33 54 18 29 1016.6 1016.6 0.2
18/07:30pm 15.1 9.2 12.4 84 1.5 SW 35 50 19 27 1016.6 1016.6 0.2
18/07:28pm 15.2 9.5 12.9 86 1.3 SW 35 50 19 27 1016.6 1016.6 0.2
18/07:22pm 15.1 10.0 13.1 88 1.1 SW 32 50 17 27 1016.6 1016.6 0.2
18/07:12pm 14.9 9.6 13.1 89 1.0 SW 33 46 18 25 1016.4 1016.4 0.2
18/07:00pm 14.8 9.2 13.3 91 0.8 SW 35 48 19 26 1016.2 1016.2 0.2
18/06:53pm 14.9 10.0 13.8 93 0.6 SW 32 44 17 24 1016.1 1016.1 0.2
18/06:30pm 14.8 8.4 13.3 91 0.8 SW 39 50 21 27 1015.9 1015.9 0.2
18/06:19pm 14.7 9.4 14.1 96 0.3 WSW 35 56 19 30 1015.9 1015.9 0.2
18/06:14pm 14.8 9.4 13.8 94 0.6 WSW 35 48 19 26 1015.9 1015.9 0.2
18/06:13pm 14.9 9.5 13.9 94 0.6 WSW 35 48 19 26 1015.9 1015.9 0.2
18/06:08pm 14.9 9.6 14.1 95 0.5 WSW 35 56 19 30 1015.9 1015.9 0.2
18/06:00pm 14.8 9.6 14.5 98 0.2 WSW 35 56 19 30 1016.0 1016.0 0.2
18/05:59pm 14.6 9.3 14.3 98 0.2 WSW 35 56 19 30 1015.9 1015.9 0.2
18/05:53pm 15.0 9.9 14.7 98 0.2 WSW 35 50 19 27 1016.0 1016.0 0.2
18/05:30pm 15.3 10.6 14.2 93 0.6 WSW 32 46 17 25 1016.0 1016.0 0.0
18/05:29pm 15.3 10.5 14.5 95 0.5 WSW 33 46 18 25 1016.0 1016.0 0.0
18/05:00pm 15.9 10.4 12.6 81 1.8 WSW 33 44 18 24 1015.8 1015.8 0.0
18/04:30pm 16.2 10.1 13.1 82 1.7 WSW 37 50 20 27 1015.6 1015.6 0.0
18/04:12pm 16.4 10.8 13.3 82 1.7 WSW 35 54 19 29 1015.6 1015.6 0.0
18/04:00pm 16.4 10.4 12.2 76 2.3 WSW 35 46 19 25 1015.7 1015.7 0.0
18/03:30pm 17.7 12.1 13.4 76 2.4 WSW 35 54 19 29 1015.7 1015.7 0.0
18/03:00pm 16.6 8.9 11.5 72 2.8 WSW 43 57 23 31 1015.7 1015.7 0.0
18/02:30pm 15.3 8.7 12.6 84 1.5 WSW 39 57 21 31 1015.9 1015.9 0.0
18/02:03pm 16.0 9.1 12.9 82 1.7 WSW 41 61 22 33 1015.9 1015.9 0.0
18/02:00pm 16.4 9.7 12.2 76 2.3 WSW 39 54 21 29 1015.8 1015.8 0.0
18/01:39pm 16.8 10.7 12.9 78 2.2 WSW 37 50 20 27 1015.8 1015.8 0.0
18/01:30pm 16.0 10.8 14.5 91 0.9 WSW 35 50 19 27 1015.9 1015.9 0.0
18/01:24pm 14.9 8.6 13.4 91 0.8 WSW 39 50 21 27 1015.9 1015.9 0.0
18/01:00pm 16.1 10.1 12.1 77 2.2 W 35 50 19 27 1015.8 1015.8 0.0
18/12:30pm 15.9 9.3 11.5 75 2.4 WSW 37 56 20 30 1015.8 1015.8 0.0
18/12:02pm 16.5 10.8 11.9 74 2.5 WSW 33 54 18 29 1015.8 1015.8 0.0
18/12:00pm 16.6 11.0 12.2 75 2.4 WSW 33 50 18 27 1015.8 1015.8 0.0
18/11:30am 15.6 9.6 12.0 79 2.0 WSW 35 54 19 29 1015.8 1015.8 0.0
18/11:20am 15.5 10.0 12.3 81 1.8 WSW 33 52 18 28 1015.8 1015.8 0.0
18/11:00am 16.0 10.2 11.6 75 2.4 WSW 33 48 18 26 1015.7 1015.7 0.0
18/10:40am 14.4 8.7 11.9 85 1.3 WSW 33 52 18 28 1015.8 1015.8 0.0
18/10:32am 15.2 9.8 12.9 86 1.3 WSW 33 48 18 26 1016.0 1016.0 0.0
18/10:30am 15.0 9.2 12.7 86 1.3 WSW 35 48 19 26 1015.9 1015.9 0.0
18/10:06am 14.7 9.9 14.1 96 0.3 WSW 32 43 17 23 1015.8 1015.8 0.0
18/10:00am 14.3 10.3 14.1 99 0.1 WSW 28 43 15 23 1015.8 1015.8 0.0
18/09:56am 14.1 9.6 13.9 99 0.1 WSW 30 48 16 26 1015.8 1015.8 0.0
18/09:54am 13.7 8.6 13.2 97 0.3 WSW 32 48 17 26 1015.8 1015.8 0.0
18/09:53am 14.0 9.1 13.7 98 0.2 WSW 32 48 17 26 1015.9 1015.9 0.0
18/09:30am 16.1 10.7 12.1 77 2.2 WSW 32 46 17 25 1015.8 1015.8 0.0
18/09:00am 14.6 9.1 12.3 86 1.3 WSW 33 50 18 27 1015.7 1015.7 1.0
18/08:59am 14.7 9.4 12.6 87 1.2 WSW 32 50 17 27 1015.8 1015.8 1.0
18/08:34am 14.2 9.6 12.2 88 1.1 WSW 28 41 15 22 1015.7 1015.7 1.0
18/08:30am 14.3 9.7 13.5 95 0.4 WSW 30 41 16 22 1015.7 1015.7 1.0
18/08:09am 14.5 10.9 14.2 98 0.2 WSW 26 33 14 18 1015.6 1015.6 1.0
18/08:07am 14.6 11.1 14.4 99 0.1 WSW 26 35 14 19 1015.7 1015.7 1.0
18/08:00am 13.6 9.4 13.4 99 0.1 WSW 28 39 15 21 1015.6 1015.6 1.0
18/07:47am 13.6 9.0 13.4 99 0.1 WSW 30 48 16 26 1015.7 1015.7 1.0
18/07:46am 13.6 9.0 13.4 99 0.1 WSW 30 48 16 26 1015.7 1015.7 1.0
18/07:44am 13.9 9.4 13.7 99 0.1 WSW 30 48 16 26 1015.7 1015.7 1.0
18/07:30am 14.2 10.0 13.6 96 0.3 WSW 28 39 15 21 1015.5 1015.5 1.0
18/07:29am 14.1 9.9 13.5 96 0.3 WSW 28 39 15 21 1015.5 1015.5 1.0
18/07:00am 13.4 9.1 13.2 99 0.1 WSW 28 43 15 23 1015.2 1015.2 1.0
18/06:47am 13.6 9.4 13.4 99 0.1 W 28 44 15 24 1015.1 1015.1 1.0
18/06:30am 13.9 10.9 13.7 99 0.1 W 22 33 12 18 1015.0 1015.0 1.0
18/06:29am 13.9 10.6 13.9 100 0.0 WSW 24 35 13 19 1015.0 1015.0 1.0
18/06:08am 13.8 10.0 13.6 99 0.1 W 26 35 14 19 1015.0 1015.0 0.8
18/06:00am 13.3 9.0 13.1 99 0.1 WSW 28 48 15 26 1015.0 1015.0 0.8
18/05:51am 13.5 9.2 13.3 99 0.1 W 28 48 15 26 1014.9 1014.9 0.8
18/05:49am 13.7 9.5 13.5 99 0.1 W 28 41 15 22 1014.9 1014.9 0.8
18/05:30am 13.8 9.2 13.6 99 0.1 W 30 41 16 22 1014.8 1014.8 0.8
18/05:25am 13.6 9.0 13.4 99 0.1 W 30 43 16 23 1014.8 1014.8 0.8
18/05:00am 13.7 9.9 13.5 99 0.1 WSW 26 37 14 20 1014.7 1014.7 0.8
18/04:53am 13.8 10.0 13.6 99 0.1 WSW 26 35 14 19 1014.7 1014.7 0.8
18/04:37am 13.6 8.6 13.3 98 0.2 WSW 32 48 17 26 1014.7 1014.7 0.8
18/04:36am 13.6 8.9 13.3 98 0.2 WSW 30 48 16 26 1014.7 1014.7 0.8
18/04:30am 13.8 10.4 13.6 99 0.1 WSW 24 35 13 19 1014.7 1014.7 0.8
18/04:13am 13.8 9.7 13.8 100 0.0 W 28 37 15 20 1014.7 1014.7 0.8
18/04:00am 13.5 9.7 13.5 100 0.0 W 26 37 14 20 1014.6 1014.6 0.8
18/03:55am 13.6 10.2 13.6 100 0.0 WSW 24 37 13 20 1014.6 1014.6 0.8
18/03:34am 13.5 8.5 13.5 100 0.0 WSW 32 44 17 24 1014.9 1014.9 0.6
18/03:32am 13.7 8.8 13.7 100 0.0 W 32 44 17 24 1014.9 1014.9 0.6
18/03:30am 13.9 9.4 13.9 100 0.0 W 30 43 16 23 1014.9 1014.9 0.4
18/03:12am 14.0 9.9 13.8 99 0.1 W 28 39 15 21 1015.1 1015.1 0.2
18/03:00am 14.1 10.0 13.9 99 0.1 W 28 39 15 21 1015.0 1015.0 0.0
18/02:59am 14.1 10.0 13.9 99 0.1 W 28 39 15 21 1015.0 1015.0 0.0
18/02:43am 13.8 9.3 13.8 100 0.0 W 30 39 16 21 1015.1 1015.1 0.0
18/02:40am 14.0 9.5 13.8 99 0.1 W 30 39 16 21 1015.1 1015.1 0.0
18/02:30am 13.9 10.5 13.7 99 0.1 W 24 35 13 19 1015.0 1015.0 0.0
18/02:15am 13.9 9.8 13.7 99 0.1 W 28 35 15 19 1015.1 1015.1 0.0
18/02:11am 13.8 10.0 13.6 99 0.1 W 26 35 14 19 1015.1 1015.1 0.0
18/02:00am 13.8 9.6 13.6 99 0.1 WSW 28 43 15 23 1015.3 1015.3 0.0
18/01:54am 13.8 8.9 13.6 99 0.1 WSW 32 43 17 23 1015.4 1015.4 0.0
18/01:44am 14.2 10.3 13.2 94 0.6 WSW 26 39 14 21 1015.4 1015.4 0.0
18/01:30am 14.4 10.2 13.4 94 0.6 WSW 28 39 15 21 1015.5 1015.5 0.0
18/01:00am 14.6 9.0 11.4 81 1.7 WSW 32 44 17 24 1015.7 1015.7 0.0
18/12:30am 15.0 10.0 12.3 84 1.5 WSW 30 44 16 24 1015.7 1015.7 0.0
18/12:07am 15.0 9.8 11.6 80 1.8 W 30 50 16 27 1015.6 1015.6 0.0
18/12:00am 15.1 9.9 11.7 80 1.8 WSW 30 43 16 23 1015.7 1015.7 0.0
 
Date/Time
EDT
Temp
°C
App
Temp
°C
Dew
Point
°C
Rel
Hum
%
Delta-T
°C
Wind Press
QNH
hPa
Press
MSL
hPa
Rain since
9am
mm
Dir  Spd
km/h
Gust
km/h
Spd
kts
Gust
kts
17/11:30pm 14.9 9.5 12.2 84 1.5 WSW 32 41 17 22 1015.9 1015.9 0.0
17/11:00pm 15.1 10.7 12.8 86 1.3 W 28 41 15 22 1016.1 1016.1 0.0
17/10:30pm 14.8 9.7 11.8 82 1.6 WSW 30 44 16 24 1016.5 1016.5 0.0
17/10:02pm 14.5 9.9 13.4 93 0.6 WSW 30 41 16 22 1016.8 1016.8 0.0
17/10:00pm 14.4 9.7 13.3 93 0.6 WSW 30 41 16 22 1016.8 1016.8 0.0
17/09:30pm 14.5 10.5 14.0 97 0.3 WSW 28 39 15 21 1016.9 1016.9 0.0
17/09:23pm 14.7 10.6 13.7 94 0.6 WSW 28 39 15 21 1016.8 1016.8 0.0
17/09:17pm 14.7 10.1 13.4 92 0.7 WSW 30 43 16 23 1016.8 1016.8 0.0
17/09:00pm 14.4 9.5 13.8 96 0.3 WSW 32 44 17 24 1016.7 1016.7 0.0
17/08:30pm 14.4 10.1 13.1 92 0.7 WSW 28 41 15 22 1016.6 1016.6 0.0
17/08:16pm 14.3 9.6 13.3 94 0.6 WSW 30 43 16 23 1016.6 1016.6 0.0
17/08:01pm 14.5 9.7 12.9 90 0.9 WSW 30 48 16 26 1016.5 1016.5 0.0
17/08:00pm 14.6 9.8 12.8 89 1.0 WSW 30 41 16 22 1016.5 1016.5 0.0
17/07:30pm 14.6 8.9 11.7 83 1.6 WSW 33 50 18 27 1016.5 1016.5 0.0
17/07:07pm 14.9 9.7 11.5 80 1.8 WSW 30 48 16 26 1016.5 1016.5 0.0
17/07:00pm 14.9 9.0 11.3 79 1.9 WSW 33 46 18 25 1016.5 1016.5 0.0
17/06:30pm 15.0 9.2 11.4 79 1.9 W 33 48 18 26 1016.5 1016.5 0.0
17/06:00pm 15.1 9.1 10.7 75 2.3 W 33 43 18 23 1016.5 1016.5 0.0
17/05:39pm 15.0 9.4 10.2 73 2.5 W 30 48 16 26 1016.4 1016.4 0.0
17/05:30pm 15.5 9.7 10.7 73 2.5 W 32 44 17 24 1016.6 1016.6 0.0
17/05:00pm 15.5 9.5 10.1 70 2.8 W 32 44 17 24 1016.8 1016.8 0.0
17/04:30pm 16.2 10.5 9.8 66 3.3 W 30 43 16 23 1017.1 1017.1 0.0
17/04:00pm 15.7 9.0 9.6 67 3.2 WSW 35 52 19 28 1017.5 1017.5 0.0
17/03:30pm 16.8 10.5 9.7 63 3.7 W 33 46 18 25 1017.5 1017.5 0.0
17/03:18pm 16.8 10.5 9.7 63 3.7 W 33 52 18 28 1017.4 1017.4 0.0
17/03:00pm 15.9 9.7 9.3 65 3.4 W 32 43 17 23 1017.5 1017.5 0.0
17/02:30pm 18.4 12.7 11.0 62 4.0 W 32 43 17 23 1017.7 1017.7 0.0

Other formats

Comma delimited format used in spreadsheet applications
http://www.bom.gov.au/fwo/IDT60801/IDT60801.94850.axf

JavaScript Object Notation format (JSON) in row-major order
http://www.bom.gov.au/fwo/IDT60801/IDT60801.94850.json

Data quality

Most of these data are generated automatically and are frequently updated. Quality checks on data are not normally performed. It is possible for incorrect values to appear. Refer to information at About Latest Weather Observations and please check the disclaimer before using these data.